Al Kharsaah — C6VG3 — position and weather

sailwx.info

Track history (hours):
 
Tides and Currents Weather Stations Pressure Air Temp Water Temp Dewpoint Dewpoint Depression Visibility Wind Speed Wind Dir Waves Ship Positions

Al Kharsaah

Last reported at 2017-Sep-29 00:39 UTC. Time now 2017-Nov-22 14:51 UTC.
Position N 01°18' E 103°20'.
Warning: this ship's position is 54 days out of date.

Length 315 m; draft 9.4 m.

Type: Ship (hazmat cat D). MMSI: 309333000.

Date/timePositionNaut miles runAvg speedWind from/ knotsBaromVisibWave heightAir tempDewpointWater temp
2017-Sep-29 00:39N 01°18' E 103°20'315.0
2017-Sep-29 00:27N 01°16' E 103°22'614.3
2017-Sep-29 00:00N 01°13' E 103°28'714.8
2017-Sep-28 23:30N 01°12' E 103°36'5 9.9
2017-Sep-28 23:00N 01°11' E 103°40'2 4.4
2017-Sep-28 22:30N 01°10' E 103°42'1 1.8
2017-Sep-28 21:59N 01°10' E 103°43'0 0.1
2017-Sep-28 21:26N 01°10' E 103°43'0 0.1
2017-Sep-28 20:59N 01°10' E 103°43'0 0.0
2017-Sep-28 20:29N 01°10' E 103°43'0 0.1
2017-Sep-28 19:59N 01°10' E 103°43'0 0.1
2017-Sep-28 19:30N 01°10' E 103°43'0 0.1
2017-Sep-28 18:56N 01°10' E 103°43'0 0.0
2017-Sep-28 18:23N 01°10' E 103°43'0 0.2
2017-Sep-28 17:59N 01°10' E 103°43'0 0.0
2017-Sep-28 17:29N 01°10' E 103°43'0 0.0
2017-Sep-28 16:59N 01°10' E 103°43'0 0.1
2017-Sep-28 16:29N 01°10' E 103°43'0 0.0
2017-Sep-28 15:56N 01°10' E 103°43'0 0.0
2017-Sep-28 15:29N 01°10' E 103°43'0 0.1
2017-Sep-28 14:56N 01°10' E 103°43'0 0.0
2017-Sep-28 14:29N 01°10' E 103°43'0 0.0
2017-Sep-28 13:59N 01°10' E 103°43'0 0.0
2017-Sep-28 13:29N 01°10' E 103°43'0 0.0
2017-Sep-28 12:59N 01°10' E 103°43'0 0.2
2017-Sep-28 12:29N 01°10' E 103°43'711.9
2017-Sep-28 11:56N 01°11' E 103°50'1 2.1
2017-Sep-28 11:28N 01°12' E 103°51'1 2.3
2017-Sep-28 10:59N 01°12' E 103°52'1 2.7
2017-Sep-28 10:30N 01°13' E 103°53'2 3.0
2017-Sep-28 09:59N 01°13' E 103°54'1122.4
2017-Sep-28 09:29N 01°10' E 103°43'0 0.0
2017-Sep-28 08:59N 01°10' E 103°43'0 0.0
2017-Sep-28 08:29N 01°10' E 103°43'0 0.0
2017-Sep-28 07:59N 01°10' E 103°43'0 0.2
2017-Sep-28 07:29N 01°10' E 103°43'0 0.2
2017-Sep-28 06:56N 01°10' E 103°43'0 0.1
2017-Sep-28 06:29N 01°10' E 103°43'0 0.0
2017-Sep-28 05:56N 01°10' E 103°43'0 0.2
2017-Sep-28 05:29N 01°10' E 103°43'0 0.3
2017-Sep-28 04:59N 01°10' E 103°43'0 0.3
2017-Sep-28 04:29N 01°10' E 103°43'0 0.0
2017-Sep-28 03:59N 01°10' E 103°43'0 0.1
2017-Sep-28 03:29N 01°10' E 103°43'0 0.2
2017-Sep-28 03:00N 01°10' E 103°43'1 1.3
2017-Sep-28 02:30N 01°09' E 103°44'3 6.8
2017-Sep-28 02:00N 01°10' E 103°47'5 9.3
2017-Sep-28 01:30N 01°12' E 103°51'611.1
2017-Sep-28 01:00N 01°14' E 103°56'610.2
2017-Sep-28 00:28N 01°15' E 104°02'  
Track history (hours):
 
Tides and Currents Weather Stations Pressure Air Temp Water Temp Dewpoint Dewpoint Depression Visibility Wind Speed Wind Dir Waves Ship Positions

Al Kharsaah

Last reported at 2017-Sep-29 00:39 UTC. Time now 2017-Nov-22 14:51 UTC.
Position N 01°18' E 103°20'.
Warning: this ship's position is 54 days out of date.

Length 315 m; draft 9.4 m.

Type: Ship (hazmat cat D). MMSI: 309333000.

Date/timePositionNaut miles runAvg speedWind from/ knotsBaromVisibWave heightAir tempDewpointWater temp
2017-Sep-29 00:39N 01°18' E 103°20'315.0
2017-Sep-29 00:27N 01°16' E 103°22'614.3
2017-Sep-29 00:00N 01°13' E 103°28'714.8
2017-Sep-28 23:30N 01°12' E 103°36'5 9.9
2017-Sep-28 23:00N 01°11' E 103°40'2 4.4
2017-Sep-28 22:30N 01°10' E 103°42'1 1.8
2017-Sep-28 21:59N 01°10' E 103°43'0 0.1
2017-Sep-28 21:26N 01°10' E 103°43'0 0.1
2017-Sep-28 20:59N 01°10' E 103°43'0 0.0
2017-Sep-28 20:29N 01°10' E 103°43'0 0.1
2017-Sep-28 19:59N 01°10' E 103°43'0 0.1
2017-Sep-28 19:30N 01°10' E 103°43'0 0.1
2017-Sep-28 18:56N 01°10' E 103°43'0 0.0
2017-Sep-28 18:23N 01°10' E 103°43'0 0.2
2017-Sep-28 17:59N 01°10' E 103°43'0 0.0
2017-Sep-28 17:29N 01°10' E 103°43'0 0.0
2017-Sep-28 16:59N 01°10' E 103°43'0 0.1
2017-Sep-28 16:29N 01°10' E 103°43'0 0.0
2017-Sep-28 15:56N 01°10' E 103°43'0 0.0
2017-Sep-28 15:29N 01°10' E 103°43'0 0.1
2017-Sep-28 14:56N 01°10' E 103°43'0 0.0
2017-Sep-28 14:29N 01°10' E 103°43'0 0.0
2017-Sep-28 13:59N 01°10' E 103°43'0 0.0
2017-Sep-28 13:29N 01°10' E 103°43'0 0.0
2017-Sep-28 12:59N 01°10' E 103°43'0 0.2
2017-Sep-28 12:29N 01°10' E 103°43'711.9
2017-Sep-28 11:56N 01°11' E 103°50'1 2.1
2017-Sep-28 11:28N 01°12' E 103°51'1 2.3
2017-Sep-28 10:59N 01°12' E 103°52'1 2.7
2017-Sep-28 10:30N 01°13' E 103°53'2 3.0
2017-Sep-28 09:59N 01°13' E 103°54'1122.4
2017-Sep-28 09:29N 01°10' E 103°43'0 0.0
2017-Sep-28 08:59N 01°10' E 103°43'0 0.0
2017-Sep-28 08:29N 01°10' E 103°43'0 0.0
2017-Sep-28 07:59N 01°10' E 103°43'0 0.2
2017-Sep-28 07:29N 01°10' E 103°43'0 0.2
2017-Sep-28 06:56N 01°10' E 103°43'0 0.1
2017-Sep-28 06:29N 01°10' E 103°43'0 0.0
2017-Sep-28 05:56N 01°10' E 103°43'0 0.2
2017-Sep-28 05:29N 01°10' E 103°43'0 0.3
2017-Sep-28 04:59N 01°10' E 103°43'0 0.3
2017-Sep-28 04:29N 01°10' E 103°43'0 0.0
2017-Sep-28 03:59N 01°10' E 103°43'0 0.1
2017-Sep-28 03:29N 01°10' E 103°43'0 0.2
2017-Sep-28 03:00N 01°10' E 103°43'1 1.3
2017-Sep-28 02:30N 01°09' E 103°44'3 6.8
2017-Sep-28 02:00N 01°10' E 103°47'5 9.3
2017-Sep-28 01:30N 01°12' E 103°51'611.1
2017-Sep-28 01:00N 01°14' E 103°56'610.2
2017-Sep-28 00:28N 01°15' E 104°02'  

Dump ship's entire track history